El Salvador International Airport
MSLP : now visible

Airfield :











YOU CAN JOIN US ON...

 
LOGIN :

Register | Disclaimer

   EN    FR    IT 

 









Legend :    VFR   Marginal VFR   IFR   Intensive IFR   Very Intensive IFR
Visi :
Ceiling :
>= 8 km
>= 3000ft
5 to 8 km
1000 to 3000 ft
1500m to 5 km
500 to 1000 ft
800 to 1500m
200 to 500 ft
< 800m
< 200 ft
Symbols :   Thunderstorms  Fog  Heavy snow  Heavy precipitations  Wind > 20 kt






- Airport Elevation : 101 ft
- IATA code : SAL


MSLP - El Salvador International

CURRENT METAR :
  • 021550Z 10005KT 040V150 9999 FEW060 33/22 Q1011 A2988 NOSIG RMK HZ

EXPIRED METARs :
  • 021506Z 10004KT 050V160 CAVOK 32/23 Q1012 NOSIG RMK HZ
  • 021450Z 09005KT 040V150 CAVOK 30/22 Q1012 A2989 NOSIG RMK HZ
  • 021350Z 04004KT 360V070 CAVOK 30/23 Q1012 A2988 NOSIG RMK HZ

TAF TAF MSLP
Valid from the 02 at 12:00 until the 03 at 12:00 UTC


020925Z 0212/0312 06006KT 9999 SCT023 TX33/0218Z TN25/0312Z
FM021800 21012KT 9999 SCT033 FEW040CB
FM030000 VRB03KT 9999 SCT037 FEW040CB
TEMPO 0304/0308 8000 TSRA



MET'MAP, your aeronautical weather chart ! - Copyright ORBIFLY December 2007 - Disclaimer

ORBIFLY MET'MAP TEAM :

Programming & Development : Alexandra Zaïnal
Concept & original design : Baudouin d'Aumeries
Assistance for programming : Marc-Olivier Méhu
Technical & hardware support : Manuel Goepfert

Contact : metmap@orbifly.com




SOURCES & CREDITS :

   NOAA       Earth
Advisory